Time;durP1;ratioP1;P1;durP2;ratioP2;P2;SDS_P1;SDS_P2;PMS_P1;PMS_P2;Temp;Humidity;BMP_temperature;BMP_pressure;BME280_temperature;BME280_humidity;BME280_pressure;Samples;Min_cycle;Max_cycle;Signal;HPM_P1;HPM_P2
2021/05/15 00:00:56;;;;;;;11.00;4.20;;;10.90;99.90;;;;;;5046031;28;20033;-69
2021/05/15 00:03:22;;;;;;;14.18;5.18;;;11.00;99.90;;;;;;5025153;28;20042;-69
2021/05/15 00:05:47;;;;;;;12.88;4.68;;;11.00;99.90;;;;;;5037646;28;20056;-69
2021/05/15 00:08:13;;;;;;;9.95;4.47;;;11.00;99.90;;;;;;5037901;28;20380;-69
2021/05/15 00:10:40;;;;;;;10.60;4.40;;;11.10;99.90;;;;;;5026446;28;20509;-69
2021/05/15 00:13:05;;;;;;;9.95;4.63;;;11.20;99.90;;;;;;5034609;28;20041;-69
2021/05/15 00:15:31;;;;;;;10.95;4.88;;;11.20;99.90;;;;;;5038447;28;20619;-69
2021/05/15 00:17:57;;;;;;;12.82;4.43;;;11.20;99.90;;;;;;5034440;28;20033;-69
2021/05/15 00:20:23;;;;;;;11.40;5.50;;;11.20;99.90;;;;;;5027933;28;20052;-69
2021/05/15 00:22:48;;;;;;;11.30;4.80;;;11.20;99.90;;;;;;5035211;28;20072;-68
2021/05/15 00:25:16;;;;;;;8.25;4.18;;;11.20;99.90;;;;;;5039905;28;20136;-68
2021/05/15 00:27:42;;;;;;;8.90;4.63;;;11.20;99.90;;;;;;5035258;28;20036;-69
2021/05/15 00:30:10;;;;;;;16.95;4.65;;;11.20;99.90;;;;;;5035262;28;20056;-69
2021/05/15 00:32:36;;;;;;;10.90;5.18;;;11.10;99.90;;;;;;5027642;28;20454;-68
2021/05/15 00:35:02;;;;;;;12.45;5.13;;;11.10;99.90;;;;;;5035195;28;20112;-69
2021/05/15 00:37:28;;;;;;;11.80;5.53;;;11.10;99.90;;;;;;5031896;28;20033;-69
2021/05/15 00:39:53;;;;;;;13.25;5.10;;;11.10;99.90;;;;;;5024865;28;20533;-68
2021/05/15 00:42:19;;;;;;;11.77;5.05;;;11.10;99.90;;;;;;5037715;28;20052;-69
2021/05/15 00:44:45;;;;;;;11.18;4.80;;;11.10;99.90;;;;;;5043306;28;20238;-69
2021/05/15 00:47:16;;;;;;;12.07;5.85;;;11.00;99.90;;;;;;5026267;28;20559;-69
2021/05/15 00:49:43;;;;;;;10.43;4.85;;;11.00;99.90;;;;;;5025906;28;20030;-69
2021/05/15 00:52:09;;;;;;;14.07;5.70;;;11.00;99.90;;;;;;5036217;28;20041;-69
2021/05/15 00:54:37;;;;;;;11.75;5.78;;;10.90;99.90;;;;;;5026979;28;20044;-68
2021/05/15 00:57:04;;;;;;;12.55;6.30;;;11.00;99.90;;;;;;5037201;28;20044;-68
2021/05/15 00:59:31;;;;;;;10.07;5.75;;;10.90;99.90;;;;;;5034268;28;20041;-68
2021/05/15 01:01:57;;;;;;;15.93;6.50;;;10.90;99.90;;;;;;5030545;28;20119;-69
2021/05/15 01:04:22;;;;;;;11.82;5.35;;;10.90;99.90;;;;;;5036627;28;20120;-69
2021/05/15 01:06:49;;;;;;;12.68;6.03;;;10.80;99.90;;;;;;5028853;28;20112;-69
2021/05/15 01:09:14;;;;;;;15.38;6.32;;;10.70;99.90;;;;;;5028718;28;20570;-69
2021/05/15 01:11:40;;;;;;;15.73;6.28;;;10.70;99.90;;;;;;5036358;28;20116;-68
2021/05/15 01:14:05;;;;;;;12.68;6.05;;;10.70;99.90;;;;;;5026215;28;20120;-68
2021/05/15 01:16:32;;;;;;;15.38;5.32;;;10.80;99.90;;;;;;5035157;28;20112;-69
2021/05/15 01:19:01;;;;;;;11.43;5.28;;;10.70;99.90;;;;;;5036880;28;20036;-68
2021/05/15 01:21:27;;;;;;;12.18;4.97;;;10.80;99.90;;;;;;5037683;28;20033;-68
2021/05/15 01:23:53;;;;;;;14.18;5.30;;;10.80;99.90;;;;;;5034167;28;20392;-69
2021/05/15 01:26:21;;;;;;;11.05;5.65;;;10.70;99.90;;;;;;5037676;28;20033;-69
2021/05/15 01:28:52;;;;;;;13.85;5.07;;;10.70;99.90;;;;;;5040241;28;20075;-69
2021/05/15 01:31:18;;;;;;;;;;;10.70;99.90;;;;;;5044130;28;20048;-68
2021/05/15 01:33:44;;;;;;;13.77;5.60;;;10.60;99.90;;;;;;5048037;28;20396;-68
2021/05/15 01:36:10;;;;;;;14.18;5.97;;;10.60;99.90;;;;;;5043680;28;20033;-68
2021/05/15 01:38:37;;;;;;;9.65;5.93;;;10.60;99.90;;;;;;5047277;28;20060;-69
2021/05/15 01:41:04;;;;;;;9.75;5.22;;;10.70;99.90;;;;;;5031588;28;20038;-68
2021/05/15 01:43:29;;;;;;;13.40;6.57;;;10.80;99.90;;;;;;5042837;28;20468;-68
2021/05/15 01:45:55;;;;;;;13.90;5.60;;;10.80;99.90;;;;;;5049616;28;20091;-68
2021/05/15 01:48:21;;;;;;;15.23;6.63;;;10.70;99.90;;;;;;5039858;28;20052;-68
2021/05/15 01:51:00;;;;;;;14.93;5.97;;;10.70;99.90;;;;;;5033723;28;20033;-69
2021/05/15 01:53:27;;;;;;;15.93;6.15;;;10.70;99.90;;;;;;5030414;28;20036;-69
2021/05/15 01:55:54;;;;;;;11.60;6.05;;;10.70;99.90;;;;;;5040403;28;20036;-68
2021/05/15 01:58:20;;;;;;;14.38;6.28;;;10.70;99.90;;;;;;5043093;28;20053;-69
2021/05/15 02:00:46;;;;;;;10.73;5.25;;;10.70;99.90;;;;;;5039950;28;20442;-68
2021/05/15 02:03:12;;;;;;;18.02;6.13;;;10.80;99.90;;;;;;5033214;28;20037;-68
2021/05/15 02:05:38;;;;;;;15.40;5.45;;;10.80;99.90;;;;;;5041471;28;20478;-69
2021/05/15 02:08:04;;;;;;;13.65;5.90;;;10.90;99.90;;;;;;5031209;28;20087;-69
2021/05/15 02:10:29;;;;;;;13.65;6.50;;;10.90;99.90;;;;;;5042626;28;20153;-68
2021/05/15 02:12:55;;;;;;;13.90;6.15;;;10.90;99.90;;;;;;5040975;28;20542;-68
2021/05/15 02:15:21;;;;;;;12.43;5.47;;;10.90;99.90;;;;;;5033382;28;20120;-68
2021/05/15 02:17:47;;;;;;;12.18;5.43;;;10.90;99.90;;;;;;5044326;28;20037;-69
2021/05/15 02:20:13;;;;;;;14.77;5.80;;;10.90;99.90;;;;;;5032980;28;20055;-69
2021/05/15 02:22:38;;;;;;;12.43;5.38;;;10.90;99.90;;;;;;5041715;28;20505;-68
2021/05/15 02:25:05;;;;;;;11.63;5.55;;;10.90;99.90;;;;;;5041617;28;20030;-68
2021/05/15 02:27:30;;;;;;;14.80;6.32;;;10.90;99.90;;;;;;5042759;28;20083;-68
2021/05/15 02:29:56;;;;;;;10.20;5.45;;;10.90;99.90;;;;;;5033465;28;20528;-68
2021/05/15 02:32:22;;;;;;;12.55;5.88;;;10.90;99.90;;;;;;5045074;28;20059;-69
2021/05/15 02:34:47;;;;;;;13.70;5.72;;;10.90;99.90;;;;;;5041005;28;20083;-69
2021/05/15 02:37:13;;;;;;;13.90;6.03;;;10.90;99.90;;;;;;5049617;28;20032;-69
2021/05/15 02:39:38;;;;;;;16.70;6.78;;;10.90;99.90;;;;;;5037367;28;20055;-68
2021/05/15 02:42:04;;;;;;;12.27;5.65;;;10.90;99.90;;;;;;5028976;28;20053;-69
2021/05/15 02:44:30;;;;;;;13.77;5.53;;;11.00;99.90;;;;;;5032267;28;20037;-68
2021/05/15 02:46:56;;;;;;;13.88;6.00;;;11.00;99.90;;;;;;5039868;28;20386;-69
2021/05/15 02:49:21;;;;;;;12.43;4.90;;;11.00;99.90;;;;;;5026399;28;20436;-68
2021/05/15 02:51:47;;;;;;;9.20;5.25;;;11.10;99.90;;;;;;5039103;28;20064;-69
2021/05/15 02:54:12;;;;;;;9.68;5.45;;;11.10;99.90;;;;;;5035764;28;20053;-69
2021/05/15 02:56:38;;;;;;;13.65;5.40;;;11.00;99.90;;;;;;5039035;28;20550;-68
2021/05/15 02:59:03;;;;;;;15.95;6.53;;;11.00;99.90;;;;;;5035248;28;20391;-69
2021/05/15 03:01:30;;;;;;;10.73;5.45;;;10.90;99.90;;;;;;5038410;28;20025;-68
2021/05/15 03:03:55;;;;;;;15.35;5.25;;;10.90;99.90;;;;;;5037956;28;20486;-69
2021/05/15 03:06:21;;;;;;;14.52;5.40;;;10.90;99.90;;;;;;5038673;28;20325;-69
2021/05/15 03:08:46;;;;;;;9.98;4.88;;;10.90;99.90;;;;;;5036540;28;20033;-69
2021/05/15 03:11:12;;;;;;;13.73;5.55;;;10.80;99.90;;;;;;5029809;28;20112;-68
2021/05/15 03:13:38;;;;;;;13.32;5.60;;;10.80;99.90;;;;;;5036962;28;20083;-69
2021/05/15 03:16:04;;;;;;;15.15;5.35;;;10.80;99.90;;;;;;5038478;28;20071;-69
2021/05/15 03:18:30;;;;;;;12.63;5.05;;;10.70;99.90;;;;;;5037431;28;20037;-68
2021/05/15 03:20:55;;;;;;;12.57;5.47;;;10.70;99.90;;;;;;5037481;28;20091;-69
2021/05/15 03:23:21;;;;;;;11.10;5.80;;;10.70;99.90;;;;;;5028859;28;20284;-68
2021/05/15 03:25:47;;;;;;;10.38;4.78;;;10.60;99.90;;;;;;5036221;28;20202;-69
2021/05/15 03:28:13;;;;;;;12.32;5.03;;;10.60;99.90;;;;;;5039053;28;20056;-68
2021/05/15 03:30:38;;;;;;;14.93;5.40;;;10.60;99.90;;;;;;5036075;28;20057;-68
2021/05/15 03:33:04;;;;;;;16.05;5.22;;;10.60;99.90;;;;;;5038826;28;20514;-68
2021/05/15 03:35:31;;;;;;;12.45;5.53;;;10.60;99.90;;;;;;5037813;28;20127;-69
2021/05/15 03:37:57;;;;;;;10.73;4.95;;;10.60;99.90;;;;;;5043593;28;20037;-68
2021/05/15 03:40:23;;;;;;;16.38;5.45;;;10.60;99.90;;;;;;5038033;28;20089;-69
2021/05/15 03:42:49;;;;;;;9.25;5.03;;;10.60;99.90;;;;;;5035962;28;20068;-68
2021/05/15 03:45:14;;;;;;;12.38;5.18;;;10.60;99.90;;;;;;5043248;28;20025;-68
2021/05/15 03:47:40;;;;;;;14.40;5.88;;;10.70;99.90;;;;;;5028791;28;20414;-69
2021/05/15 03:50:07;;;;;;;18.83;5.53;;;10.60;99.90;;;;;;5036607;28;20044;-68
2021/05/15 03:52:33;;;;;;;14.35;5.90;;;10.60;99.90;;;;;;5028117;28;20056;-68
2021/05/15 03:54:59;;;;;;;12.15;5.45;;;10.60;99.90;;;;;;5037391;28;20499;-68
2021/05/15 03:57:25;;;;;;;15.43;5.65;;;10.60;99.90;;;;;;5036250;28;20414;-69
2021/05/15 03:59:51;;;;;;;12.77;5.78;;;10.60;99.90;;;;;;5037994;28;20029;-68
2021/05/15 04:02:21;;;;;;;14.05;6.43;;;10.60;99.90;;;;;;5035723;28;20037;-68
2021/05/15 04:04:47;;;;;;;14.73;5.72;;;10.60;99.90;;;;;;5038549;28;20029;-69
2021/05/15 04:07:12;;;;;;;13.40;6.30;;;10.60;99.90;;;;;;5035360;28;20118;-68
2021/05/15 04:09:38;;;;;;;12.63;6.60;;;10.60;99.90;;;;;;5028149;28;20051;-69
2021/05/15 04:12:04;;;;;;;15.70;6.05;;;10.60;99.90;;;;;;5036143;28;20388;-69
2021/05/15 04:14:35;;;;;;;12.98;5.95;;;10.60;99.90;;;;;;5037221;28;20037;-69
2021/05/15 04:17:17;;;;;;;12.68;6.10;;;10.60;99.90;;;;;;5027116;28;20044;-68
2021/05/15 04:19:42;;;;;;;14.90;6.78;;;10.60;99.90;;;;;;5037889;28;20040;-68
2021/05/15 04:22:08;;;;;;;15.55;6.10;;;10.50;99.90;;;;;;5035201;28;20041;-68
2021/05/15 04:24:34;;;;;;;12.20;6.28;;;10.60;99.90;;;;;;5037209;28;20041;-68
2021/05/15 04:27:02;;;;;;;12.50;6.22;;;10.50;99.90;;;;;;5036323;28;20048;-69
2021/05/15 04:29:29;;;;;;;14.25;6.53;;;10.60;99.90;;;;;;5036304;28;20083;-68
2021/05/15 04:31:56;;;;;;;11.02;6.05;;;10.60;99.90;;;;;;5027715;28;20561;-68
2021/05/15 04:34:23;;;;;;;16.95;6.15;;;10.60;99.90;;;;;;5036699;28;20037;-69
2021/05/15 04:36:48;;;;;;;13.10;6.63;;;10.60;99.90;;;;;;5039925;28;20044;-68
2021/05/15 04:39:14;;;;;;;13.68;6.10;;;10.60;99.90;;;;;;5047151;28;20033;-69
2021/05/15 04:41:40;;;;;;;16.92;6.32;;;10.60;99.90;;;;;;5046845;28;20021;-69
2021/05/15 04:44:05;;;;;;;14.45;6.38;;;10.60;99.90;;;;;;5026739;28;20038;-68
2021/05/15 04:46:31;;;;;;;17.67;6.78;;;10.70;99.90;;;;;;5043940;28;20037;-68
2021/05/15 04:48:57;;;;;;;13.80;6.68;;;10.70;99.90;;;;;;5040439;28;20035;-69
2021/05/15 04:51:22;;;;;;;14.05;6.60;;;10.70;99.90;;;;;;5048582;28;20116;-69
2021/05/15 04:53:48;;;;;;;15.32;6.75;;;10.70;99.90;;;;;;5052606;28;20533;-71
2021/05/15 04:56:17;;;;;;;13.60;7.32;;;10.70;99.90;;;;;;5032993;28;20041;-69
2021/05/15 04:58:43;;;;;;;17.63;6.88;;;10.80;99.90;;;;;;5037164;28;20490;-69
2021/05/15 05:01:09;;;;;;;14.55;6.43;;;10.90;99.90;;;;;;5034869;28;20030;-68
2021/05/15 05:03:34;;;;;;;12.93;6.80;;;10.90;99.90;;;;;;5038392;28;20033;-69
2021/05/15 05:06:00;;;;;;;14.23;6.80;;;10.90;99.90;;;;;;5036434;28;20029;-68
2021/05/15 05:08:26;;;;;;;15.93;7.15;;;10.90;99.90;;;;;;5035486;28;20036;-71
2021/05/15 05:10:55;;;;;;;13.73;6.95;;;10.90;99.90;;;;;;5028407;28;20032;-68
2021/05/15 05:13:21;;;;;;;15.02;7.18;;;11.00;99.90;;;;;;5027265;28;20045;-69
2021/05/15 05:18:27;;;;;;;11.05;6.38;;;11.00;99.90;;;;;;5047703;28;20374;-69
2021/05/15 05:20:53;;;;;;;14.40;6.70;;;11.10;99.90;;;;;;5042107;28;20025;-69
2021/05/15 05:23:18;;;;;;;13.93;6.15;;;11.20;99.90;;;;;;5043354;28;20037;-69
2021/05/15 05:25:44;;;;;;;16.30;6.93;;;11.20;99.90;;;;;;5042963;28;20488;-69
2021/05/15 05:28:14;;;;;;;12.55;6.30;;;11.20;99.90;;;;;;5043165;28;20491;-69
2021/05/15 05:30:39;;;;;;;20.60;7.00;;;11.20;99.90;;;;;;5038937;28;20683;-69
2021/05/15 05:33:05;;;;;;;16.88;7.78;;;11.30;99.90;;;;;;5041439;28;20033;-69
2021/05/15 05:35:34;;;;;;;13.88;7.00;;;11.30;99.90;;;;;;5043500;28;20037;-69
2021/05/15 05:38:00;;;;;;;17.20;6.72;;;11.40;99.90;;;;;;5042670;28;20045;-69
2021/05/15 05:40:25;;;;;;;20.00;8.98;;;11.50;99.90;;;;;;5042067;28;20045;-69
2021/05/15 05:42:51;;;;;;;13.88;7.85;;;11.40;99.90;;;;;;5043353;28;20041;-69
2021/05/15 05:45:16;;;;;;;16.65;8.15;;;11.40;99.90;;;;;;5043463;28;20044;-69
2021/05/15 05:47:43;;;;;;;16.27;8.00;;;11.40;99.90;;;;;;5042929;28;20116;-69
2021/05/15 05:50:10;;;;;;;22.70;9.57;;;11.50;99.90;;;;;;5042504;28;20041;-69
2021/05/15 05:52:35;;;;;;;20.05;8.85;;;11.40;99.90;;;;;;5039639;28;20083;-69
2021/05/15 05:55:03;;;;;;;17.58;8.20;;;11.30;99.90;;;;;;5042340;28;20037;-69
2021/05/15 05:57:28;;;;;;;16.60;7.78;;;11.20;99.90;;;;;;5041738;28;20045;-69
2021/05/15 05:59:54;;;;;;;19.58;9.43;;;11.20;99.90;;;;;;5041615;28;20049;-69
2021/05/15 06:02:19;;;;;;;16.20;8.20;;;11.20;99.90;;;;;;5042157;28;20041;-69
2021/05/15 06:04:45;;;;;;;15.32;7.97;;;11.20;99.90;;;;;;5040109;28;20099;-70
2021/05/15 06:07:12;;;;;;;16.58;8.00;;;11.20;99.90;;;;;;5040964;28;20060;-69
2021/05/15 06:09:38;;;;;;;15.05;7.57;;;11.30;99.90;;;;;;5041457;28;20610;-69
2021/05/15 06:12:03;;;;;;;14.88;7.07;;;11.30;99.90;;;;;;5038167;28;20029;-69
2021/05/15 06:14:29;;;;;;;17.63;8.05;;;11.30;99.90;;;;;;5041547;28;20033;-69
2021/05/15 06:16:55;;;;;;;14.85;7.63;;;11.40;99.90;;;;;;5040450;28;20033;-69
2021/05/15 06:19:20;;;;;;;19.98;7.88;;;11.40;99.90;;;;;;5039409;28;20034;-70
2021/05/15 06:21:46;;;;;;;15.23;7.32;;;11.50;99.90;;;;;;5041168;28;20047;-69
2021/05/15 06:24:12;;;;;;;16.45;7.97;;;11.40;99.90;;;;;;5040585;28;20120;-69
2021/05/15 06:26:38;;;;;;;19.17;7.47;;;11.40;99.90;;;;;;5041351;28;20073;-69
2021/05/15 06:29:04;;;;;;;17.23;7.43;;;11.50;99.90;;;;;;5031033;28;20072;-69
2021/05/15 06:31:30;;;;;;;15.77;8.25;;;11.50;99.90;;;;;;5027805;28;20044;-69
2021/05/15 06:33:55;;;;;;;19.52;8.35;;;11.50;99.90;;;;;;5025763;28;20503;-69
2021/05/15 06:36:22;;;;;;;14.45;7.82;;;11.50;99.90;;;;;;5028003;28;20037;-69
2021/05/15 06:38:47;;;;;;;15.43;7.93;;;11.60;99.90;;;;;;5028283;28;20116;-69
2021/05/15 06:41:13;;;;;;;14.57;7.43;;;11.60;99.90;;;;;;5027258;28;20752;-69
2021/05/15 06:43:39;;;;;;;18.83;7.95;;;11.60;99.90;;;;;;5027986;28;20038;-70
2021/05/15 06:46:05;;;;;;;18.90;8.48;;;11.70;99.90;;;;;;5016748;28;20026;-69
2021/05/15 06:48:31;;;;;;;16.05;8.35;;;11.70;99.90;;;;;;5026765;28;20087;-70
2021/05/15 06:50:56;;;;;;;16.42;7.80;;;11.70;99.90;;;;;;5025365;28;20033;-70
2021/05/15 06:53:22;;;;;;;14.23;7.70;;;11.70;99.90;;;;;;5025864;28;20098;-69
2021/05/15 06:55:47;;;;;;;16.83;7.30;;;11.80;99.90;;;;;;5026168;28;20132;-69
2021/05/15 06:58:14;;;;;;;14.65;7.05;;;11.80;99.90;;;;;;5026392;28;20117;-69
2021/05/15 07:00:40;;;;;;;20.95;9.07;;;11.90;99.90;;;;;;5026688;28;20071;-70
2021/05/15 07:03:06;;;;;;;17.95;8.77;;;12.00;99.90;;;;;;5026047;28;20036;-69
2021/05/15 07:05:33;;;;;;;20.20;7.75;;;12.00;99.90;;;;;;5020599;28;20094;-70
2021/05/15 07:07:59;;;;;;;20.13;8.43;;;12.10;99.90;;;;;;5021030;28;20034;-70
2021/05/15 07:10:24;;;;;;;14.70;7.75;;;12.00;99.90;;;;;;5024238;28;20361;-69
2021/05/15 07:12:50;;;;;;;19.08;8.02;;;12.00;99.90;;;;;;5021110;28;20121;-69
2021/05/15 07:15:15;;;;;;;16.05;7.43;;;12.00;99.90;;;;;;5021110;28;20041;-70
2021/05/15 07:17:41;;;;;;;17.30;8.38;;;12.00;99.90;;;;;;5022848;28;20094;-70
2021/05/15 07:20:07;;;;;;;22.63;8.05;;;12.00;99.90;;;;;;5025110;28;20033;-70
2021/05/15 07:22:33;;;;;;;17.58;8.30;;;12.00;99.90;;;;;;5026526;28;20501;-69
2021/05/15 07:24:59;;;;;;;21.02;8.10;;;11.90;99.90;;;;;;5022226;28;20041;-69
2021/05/15 07:27:28;;;;;;;19.67;8.40;;;11.90;99.90;;;;;;5021210;28;20086;-69
2021/05/15 07:29:54;;;;;;;15.07;7.72;;;11.90;99.90;;;;;;5034210;28;20038;-70
2021/05/15 07:32:21;;;;;;;15.45;7.90;;;11.90;99.90;;;;;;5043461;28;20041;-69
2021/05/15 07:34:47;;;;;;;13.82;6.93;;;12.00;99.90;;;;;;5038213;28;20041;-70
2021/05/15 07:37:14;;;;;;;15.18;7.70;;;12.10;99.90;;;;;;5019380;28;20033;-70
2021/05/15 07:39:40;;;;;;;12.30;6.40;;;12.20;99.90;;;;;;5012341;28;20038;-70
2021/05/15 07:42:06;;;;;;;14.00;6.07;;;12.30;99.90;;;;;;5020829;28;20025;-70
2021/05/15 07:44:32;;;;;;;13.30;6.40;;;12.30;99.90;;;;;;5021270;28;20120;-69
2021/05/15 07:46:58;;;;;;;13.20;6.63;;;12.40;99.90;;;;;;5019555;28;20108;-69
2021/05/15 07:49:24;;;;;;;14.82;6.22;;;12.40;99.90;;;;;;5022885;28;20098;-70
2021/05/15 07:51:52;;;;;;;11.50;5.80;;;12.60;99.90;;;;;;5026551;28;20029;-69
2021/05/15 07:54:17;;;;;;;16.40;5.88;;;12.70;99.90;;;;;;5026943;28;20068;-69
2021/05/15 07:56:43;;;;;;;11.93;5.97;;;12.90;99.90;;;;;;5026172;28;20498;-70
2021/05/15 07:59:08;;;;;;;11.73;6.00;;;12.90;99.90;;;;;;5025314;28;20038;-69
2021/05/15 08:01:34;;;;;;;14.23;5.75;;;12.90;99.90;;;;;;5026503;28;20072;-68
2021/05/15 08:04:00;;;;;;;13.90;5.55;;;12.90;99.90;;;;;;5025466;28;20496;-70
2021/05/15 08:06:25;;;;;;;12.57;5.00;;;13.00;99.90;;;;;;5023910;28;20109;-70
2021/05/15 08:08:51;;;;;;;9.50;4.57;;;13.10;99.90;;;;;;5025120;28;20065;-68
2021/05/15 08:11:18;;;;;;;11.63;5.13;;;13.20;99.90;;;;;;5025172;28;20473;-69
2021/05/15 08:13:45;;;;;;;13.45;5.47;;;13.40;99.90;;;;;;5024493;28;20235;-70
2021/05/15 08:16:12;;;;;;;14.45;6.68;;;13.50;99.90;;;;;;5024974;28;20434;-70
2021/05/15 08:18:38;;;;;;;20.50;6.93;;;13.60;99.90;;;;;;5023647;28;20454;-70
2021/05/15 08:21:04;;;;;;;12.05;5.85;;;13.70;99.90;;;;;;5025427;28;20324;-70
2021/05/15 08:23:35;;;;;;;12.13;6.07;;;13.80;99.90;;;;;;5025470;28;20057;-70
2021/05/15 08:26:01;;;;;;;13.32;5.93;;;14.10;99.90;;;;;;5021621;28;20506;-72
2021/05/15 08:28:27;;;;;;;10.50;4.95;;;14.30;99.90;;;;;;5024625;28;20034;-71
2021/05/15 08:30:52;;;;;;;10.68;5.03;;;14.40;99.90;;;;;;5024812;28;20017;-70
2021/05/15 08:33:18;;;;;;;12.30;6.53;;;14.80;99.90;;;;;;5025227;28;20064;-70
2021/05/15 08:35:44;;;;;;;13.40;5.07;;;14.90;99.90;;;;;;5021788;28;20037;-71
2021/05/15 08:38:09;;;;;;;10.48;4.63;;;15.10;99.90;;;;;;5020499;28;20446;-71
2021/05/15 08:40:36;;;;;;;10.45;4.95;;;15.20;99.90;;;;;;5017935;28;20033;-70
2021/05/15 08:43:03;;;;;;;9.85;4.55;;;15.40;99.90;;;;;;5018312;28;20052;-70
2021/05/15 08:45:28;;;;;;;10.45;4.75;;;15.50;99.90;;;;;;5021776;28;20112;-70
2021/05/15 08:47:56;;;;;;;10.90;5.35;;;15.40;99.90;;;;;;5017792;28;20125;-70
2021/05/15 08:50:24;;;;;;;9.32;4.68;;;15.00;99.90;;;;;;5017150;28;20060;-71
2021/05/15 08:52:52;;;;;;;10.38;4.70;;;14.80;99.90;;;;;;5019793;28;20038;-70
2021/05/15 08:55:22;;;;;;;10.70;4.45;;;14.30;99.90;;;;;;5022233;28;20042;-71
2021/05/15 08:57:48;;;;;;;11.02;4.55;;;14.10;99.90;;;;;;5019028;28;20120;-70
2021/05/15 09:00:18;;;;;;;9.25;4.18;;;14.00;99.90;;;;;;5017687;28;20064;-71
2021/05/15 09:02:45;;;;;;;9.07;4.40;;;14.10;99.90;;;;;;5018536;28;20033;-71
2021/05/15 09:05:12;;;;;;;9.02;4.65;;;14.50;99.90;;;;;;5019390;28;20036;-71
2021/05/15 09:07:38;;;;;;;12.63;6.05;;;14.80;99.90;;;;;;5017585;28;20045;-71
2021/05/15 09:10:06;;;;;;;11.98;5.13;;;15.40;99.90;;;;;;5019046;28;20060;-70
2021/05/15 09:12:32;;;;;;;9.18;5.15;;;15.90;99.90;;;;;;5017426;28;20029;-70
2021/05/15 09:15:07;;;;;;;11.13;5.07;;;16.00;99.90;;;;;;5020111;28;20044;-70
2021/05/15 09:17:47;;;;;;;11.02;4.75;;;16.00;99.90;;;;;;5019339;28;20034;-70
2021/05/15 09:20:24;;;;;;;10.33;4.97;;;15.90;99.90;;;;;;5015173;28;20025;-70
2021/05/15 09:22:50;;;;;;;8.13;4.30;;;16.00;99.90;;;;;;5018875;28;20030;-70
2021/05/15 09:25:16;;;;;;;8.98;4.03;;;16.10;99.90;;;;;;5021421;28;20048;-70
2021/05/15 09:27:41;;;;;;;9.95;4.45;;;16.30;99.90;;;;;;5017575;28;20041;-70
2021/05/15 09:30:08;;;;;;;13.40;4.55;;;16.40;99.90;;;;;;5023400;28;20037;-69
2021/05/15 09:32:34;;;;;;;7.90;4.60;;;16.40;99.90;;;;;;5027852;28;20053;-70
2021/05/15 09:35:02;;;;;;;9.40;5.32;;;16.40;99.90;;;;;;5025758;28;20040;-70
2021/05/15 09:37:37;;;;;;;10.95;5.15;;;16.10;99.90;;;;;;5024338;28;20038;-70
2021/05/15 09:40:15;;;;;;;9.52;5.03;;;16.00;99.90;;;;;;5018773;28;20034;-70
2021/05/15 09:43:00;;;;;;;11.52;4.78;;;15.80;99.90;;;;;;5019056;28;20359;-70
2021/05/15 09:45:28;;;;;;;9.65;5.68;;;15.70;99.90;;;;;;5018919;28;20048;-70
2021/05/15 09:48:00;;;;;;;11.65;5.43;;;15.80;99.90;;;;;;5015790;28;20117;-70
2021/05/15 09:50:33;;;;;;;17.38;6.53;;;15.90;99.90;;;;;;5020018;28;20095;-69
2021/05/15 09:53:08;;;;;;;13.13;5.15;;;15.80;99.90;;;;;;5018868;28;20048;-70
2021/05/15 09:55:35;;;;;;;14.40;5.72;;;15.80;99.90;;;;;;5021855;28;20503;-70
2021/05/15 09:58:04;;;;;;;10.20;5.40;;;15.90;99.90;;;;;;5018335;28;20045;-70
2021/05/15 10:00:49;;;;;;;12.05;5.55;;;15.90;99.90;;;;;;5020428;28;20040;-70
2021/05/15 10:03:21;;;;;;;13.63;5.20;;;16.20;99.90;;;;;;5018323;28;20038;-69
2021/05/15 10:06:05;;;;;;;9.57;5.57;;;16.50;99.90;;;;;;5024041;28;20037;-70
2021/05/15 10:08:32;;;;;;;15.30;5.90;;;16.50;99.90;;;;;;5024597;28;20033;-69
2021/05/15 10:10:59;;;;;;;11.13;5.68;;;16.40;99.90;;;;;;5024694;28;20060;-69
2021/05/15 10:13:25;;;;;;;13.35;5.43;;;16.50;99.90;;;;;;5023263;28;20041;-69
2021/05/15 10:15:51;;;;;;;17.17;5.82;;;16.40;99.90;;;;;;5021978;28;20434;-70
2021/05/15 10:18:17;;;;;;;12.43;6.15;;;16.40;99.90;;;;;;5020582;28;20046;-70
2021/05/15 10:20:44;;;;;;;10.93;5.32;;;16.40;99.90;;;;;;5020781;28;20044;-69
2021/05/15 10:23:18;;;;;;;11.55;5.57;;;16.50;99.90;;;;;;5020379;28;20139;-70
2021/05/15 10:25:44;;;;;;;10.63;6.20;;;16.60;99.90;;;;;;5020481;28;20495;-69
2021/05/15 10:28:10;;;;;;;14.55;6.63;;;16.60;99.90;;;;;;5022241;28;20034;-71
2021/05/15 10:30:36;;;;;;;12.90;6.20;;;16.70;99.90;;;;;;5016173;28;20057;-69
2021/05/15 10:33:05;;;;;;;15.13;6.00;;;16.70;99.90;;;;;;5018344;28;20368;-69
2021/05/15 10:35:31;;;;;;;11.90;6.53;;;17.10;99.90;;;;;;5019533;28;20038;-69
2021/05/15 10:38:10;;;;;;;12.45;6.28;;;17.10;99.20;;;;;;5023251;28;20043;-69
2021/05/15 10:40:50;;;;;;;14.35;7.07;;;17.20;99.10;;;;;;5019616;28;20033;-69
2021/05/15 10:43:33;;;;;;;12.07;6.10;;;17.40;99.50;;;;;;5020108;28;20038;-69
2021/05/15 10:45:59;;;;;;;12.48;6.35;;;17.70;98.70;;;;;;5023029;28;20044;-69
2021/05/15 10:48:28;;;;;;;15.02;6.50;;;17.50;98.40;;;;;;5017615;28;20038;-69
2021/05/15 10:50:59;;;;;;;11.32;6.28;;;17.50;99.30;;;;;;5022090;28;20029;-69
2021/05/15 10:53:30;;;;;;;14.40;6.90;;;17.90;98.90;;;;;;5022658;28;20037;-69
2021/05/15 10:56:17;;;;;;;16.65;7.82;;;17.90;97.80;;;;;;5022199;28;20040;-69
2021/05/15 10:58:51;;;;;;;17.65;8.85;;;17.90;98.30;;;;;;5018386;28;20041;-68
2021/05/15 11:01:21;;;;;;;14.43;7.90;;;17.90;96.70;;;;;;5024378;28;20515;-70
2021/05/15 11:03:47;;;;;;;15.13;8.63;;;17.80;97.40;;;;;;5022046;28;20061;-71
2021/05/15 11:06:22;;;;;;;16.58;7.70;;;17.60;98.20;;;;;;5015419;28;20052;-71
2021/05/15 11:09:04;;;;;;;16.35;8.00;;;17.50;98.60;;;;;;5018977;28;20111;-72
2021/05/15 11:11:40;;;;;;;20.95;9.30;;;17.30;98.70;;;;;;5024228;28;20823;-71
2021/05/15 11:14:36;;;;;;;16.88;9.40;;;16.90;99.40;;;;;;5024913;28;20107;-70
2021/05/15 11:17:21;;;;;;;17.92;9.48;;;16.70;99.90;;;;;;5020852;28;20116;-71
2021/05/15 11:19:59;;;;;;;18.30;9.88;;;16.60;99.90;;;;;;5019136;28;20041;-70
2021/05/15 11:22:42;;;;;;;18.42;10.07;;;16.20;99.90;;;;;;5023163;28;20080;-71
2021/05/15 11:25:14;;;;;;;18.08;9.45;;;15.90;99.90;;;;;;5025178;28;20037;-70
2021/05/15 11:27:52;;;;;;;18.30;10.05;;;16.00;99.90;;;;;;5024324;28;20753;-70
2021/05/15 11:30:22;;;;;;;22.98;10.38;;;16.00;99.90;;;;;;5023507;28;20686;-70
2021/05/15 11:33:08;;;;;;;24.42;10.57;;;15.80;99.90;;;;;;5021122;28;20135;-70
2021/05/15 11:35:41;;;;;;;18.38;9.70;;;15.60;99.90;;;;;;5025155;28;20041;-70
2021/05/15 11:38:15;;;;;;;21.48;11.02;;;15.60;99.90;;;;;;5025184;28;20026;-71
2021/05/15 11:40:55;;;;;;;23.00;11.68;;;15.50;99.90;;;;;;5024303;28;20487;-70
2021/05/15 11:43:23;;;;;;;25.38;11.15;;;15.60;99.90;;;;;;5022932;28;20494;-70
2021/05/15 11:45:50;;;;;;;24.63;11.32;;;15.40;99.90;;;;;;5024468;28;20128;-70
2021/05/15 11:48:21;;;;;;;21.67;11.43;;;15.60;99.90;;;;;;5024563;28;20643;-70
2021/05/15 11:51:10;;;;;;;20.95;10.85;;;15.70;99.90;;;;;;5022084;28;20037;-70
2021/05/15 11:53:38;;;;;;;23.63;11.35;;;15.60;99.90;;;;;;5024511;28;20040;-70
2021/05/15 11:56:15;;;;;;;19.80;9.98;;;15.60;99.90;;;;;;5025539;28;20061;-70
2021/05/15 11:58:45;;;;;;;25.55;11.85;;;15.80;99.90;;;;;;5024620;28;20033;-70
2021/05/15 12:01:17;;;;;;;21.52;10.40;;;15.90;99.90;;;;;;5024231;28;20030;-70
2021/05/15 12:03:42;;;;;;;19.52;10.02;;;15.90;99.90;;;;;;5025269;28;20481;-70
2021/05/15 12:06:13;;;;;;;19.02;9.95;;;16.00;99.90;;;;;;5025332;28;20034;-70
2021/05/15 12:08:39;;;;;;;18.60;9.82;;;16.00;99.90;;;;;;5024669;28;20041;-70
2021/05/15 12:11:05;;;;;;;18.83;9.95;;;15.90;99.90;;;;;;5025288;28;20025;-70
2021/05/15 12:13:31;;;;;;;22.25;9.50;;;15.80;99.90;;;;;;5025908;28;20034;-70
2021/05/15 12:15:57;;;;;;;19.75;9.95;;;15.80;99.90;;;;;;5025527;28;20624;-70
2021/05/15 12:18:22;;;;;;;22.15;9.98;;;15.50;99.90;;;;;;5024536;28;20041;-70
2021/05/15 12:20:49;;;;;;;16.40;9.27;;;15.40;99.90;;;;;;5026099;28;20037;-70
2021/05/15 12:23:21;;;;;;;19.60;9.45;;;15.40;99.90;;;;;;5026205;28;20494;-69
2021/05/15 12:26:00;;;;;;;25.73;9.95;;;15.30;99.90;;;;;;5021239;28;20120;-70
2021/05/15 12:28:28;;;;;;;17.35;8.20;;;15.20;99.90;;;;;;5025246;28;20070;-70
2021/05/15 12:30:54;;;;;;;16.50;9.25;;;15.30;99.90;;;;;;5024633;28;20025;-70
2021/05/15 12:33:27;;;;;;;17.83;7.70;;;15.50;99.90;;;;;;5025852;28;20051;-70
2021/05/15 12:36:00;;;;;;;16.38;7.30;;;15.70;99.90;;;;;;5024749;28;20125;-70
2021/05/15 12:38:26;;;;;;;16.23;7.80;;;15.80;99.90;;;;;;5024708;28;20140;-70
2021/05/15 12:40:52;;;;;;;14.40;6.93;;;16.00;99.90;;;;;;5024406;28;20056;-70
2021/05/15 12:43:22;;;;;;;15.80;7.72;;;16.20;99.90;;;;;;5025314;28;20483;-69